Time;durP1;ratioP1;P1;durP2;ratioP2;P2;SDS_P1;SDS_P2;PMS_P1;PMS_P2;Temp;Humidity;BMP_temperature;BMP_pressure;BME280_temperature;BME280_humidity;BME280_pressure;Samples;Min_cycle;Max_cycle;Signal;HPM_P1;HPM_P2
2022/10/09 00:00:05;;;;;;;10.48;2.78;;;9.90;99.90;;;;;;5034154;28;20053;-73
2022/10/09 00:02:31;;;;;;;7.50;2.60;;;;;;;;;;5035029;28;20039;-73
2022/10/09 00:04:57;;;;;;;8.10;2.42;;;9.70;99.90;;;;;;5034934;28;20128;-73
2022/10/09 00:07:23;;;;;;;7.28;2.80;;;;;;;;;;5033886;28;20045;-73
2022/10/09 00:09:51;;;;;;;5.72;2.50;;;;;;;;;;5033325;28;20473;-73
2022/10/09 00:12:17;;;;;;;6.72;2.42;;;;;;;;;;5034047;28;20046;-73
2022/10/09 00:14:43;;;;;;;5.00;2.85;;;;;;;;;;5017109;28;20102;-73
2022/10/09 00:17:09;;;;;;;5.60;2.45;;;;;;;;;;5016965;28;20037;-73
2022/10/09 00:19:35;;;;;;;9.75;2.65;;;;;;;;;;5050162;28;20127;-73
2022/10/09 00:22:00;;;;;;;4.78;2.33;;;9.50;99.90;;;;;;5034986;28;20069;-73
2022/10/09 00:24:26;;;;;;;6.90;2.90;;;9.60;99.90;;;;;;5034482;28;20091;-73
2022/10/09 00:26:52;;;;;;;9.68;2.92;;;;;;;;;;5033696;28;20049;-74
2022/10/09 00:29:17;;;;;;;8.85;2.75;;;9.50;99.90;;;;;;5039084;28;20041;-74
2022/10/09 00:31:43;;;;;;;7.60;2.28;;;9.60;99.90;;;;;;5049468;28;20029;-73
2022/10/09 00:34:08;;;;;;;5.88;2.00;;;9.50;99.90;;;;;;5047346;28;20507;-73
2022/10/09 00:36:34;;;;;;;11.45;2.80;;;9.50;99.90;;;;;;5048892;28;20041;-73
2022/10/09 00:38:59;;;;;;;6.55;2.30;;;9.40;99.90;;;;;;5040335;28;20093;-73
2022/10/09 00:41:28;;;;;;;7.28;2.58;;;9.40;99.90;;;;;;5035392;28;20167;-73
2022/10/09 00:43:58;;;;;;;7.82;2.10;;;;;;;;;;5033307;28;20164;-73
2022/10/09 00:46:24;;;;;;;8.77;3.08;;;;;;;;;;5033046;28;20075;-73
2022/10/09 00:49:09;;;;;;;8.25;2.65;;;9.30;99.90;;;;;;5049260;28;20500;-73
2022/10/09 00:51:35;;;;;;;9.05;2.60;;;9.30;99.90;;;;;;5034295;28;20044;-73
2022/10/09 00:54:03;;;;;;;6.88;2.47;;;9.30;99.90;;;;;;5034417;28;20076;-73
2022/10/09 00:56:30;;;;;;;7.60;2.47;;;;;;;;;;5033463;28;20406;-74
2022/10/09 00:58:57;;;;;;;8.00;2.22;;;9.30;99.90;;;;;;5032940;28;20076;-73
2022/10/09 01:01:23;;;;;;;7.60;2.78;;;;;;;;;;5032700;28;20417;-74
2022/10/09 01:03:49;;;;;;;8.18;2.25;;;;;;;;;;5049245;28;20514;-73
2022/10/09 01:06:43;;;;;;;8.85;2.67;;;9.30;99.90;;;;;;5049500;28;20081;-72
2022/10/09 01:09:21;;;;;;;;;;;9.20;99.90;;;;;;5034121;28;20065;-73
2022/10/09 01:12:13;;;;;;;8.55;2.38;;;9.10;99.90;;;;;;5033052;28;19960;-73
2022/10/09 01:14:55;;;;;;;5.15;2.00;;;9.20;99.90;;;;;;5032712;28;20042;-73
2022/10/09 01:17:37;;;;;;;9.23;2.70;;;9.10;99.90;;;;;;5033002;28;20037;-73
2022/10/09 01:20:24;;;;;;;6.43;2.67;;;9.10;99.90;;;;;;5033965;28;20041;-73
2022/10/09 01:22:58;;;;;;;10.52;2.50;;;9.10;99.90;;;;;;5049585;28;20045;-72
2022/10/09 01:25:43;;;;;;;8.07;2.72;;;9.00;99.90;;;;;;5031476;28;20033;-73
2022/10/09 01:28:11;;;;;;;4.13;2.22;;;9.10;99.90;;;;;;5032657;28;20126;-72
2022/10/09 01:30:37;;;;;;;11.68;2.95;;;9.00;99.90;;;;;;5033562;28;20410;-73
2022/10/09 01:33:04;;;;;;;7.90;3.05;;;8.90;99.90;;;;;;5033919;28;20041;-73
2022/10/09 01:35:30;;;;;;;7.70;2.65;;;9.00;99.90;;;;;;5015295;28;20043;-72
2022/10/09 01:37:56;;;;;;;9.27;2.38;;;9.00;99.90;;;;;;5049240;28;20120;-73
2022/10/09 01:40:22;;;;;;;6.15;2.40;;;8.90;99.90;;;;;;5032116;28;20398;-73
2022/10/09 01:42:48;;;;;;;6.32;2.58;;;8.70;99.90;;;;;;5032168;28;20048;-76
2022/10/09 01:45:14;;;;;;;5.80;2.67;;;8.70;99.90;;;;;;5033171;28;20045;-76
2022/10/09 01:47:40;;;;;;;4.35;2.65;;;8.80;99.90;;;;;;5031826;28;20507;-76
2022/10/09 01:50:20;;;;;;;5.18;2.30;;;8.70;99.90;;;;;;5033466;28;20033;-75
2022/10/09 01:52:55;;;;;;;6.75;2.65;;;8.70;99.90;;;;;;5033434;28;20095;-75
2022/10/09 01:55:49;;;;;;;5.80;2.20;;;8.60;99.90;;;;;;5012009;28;20488;-75
2022/10/09 01:58:22;;;;;;;5.32;2.45;;;8.60;99.90;;;;;;5013042;28;20084;-75
2022/10/09 02:01:03;;;;;;;7.87;2.87;;;8.60;99.90;;;;;;5066992;22;20131;-73
2022/10/09 02:03:30;;;;;;;7.28;2.70;;;8.50;99.90;;;;;;5054485;28;20800;-72
2022/10/09 02:05:57;;;;;;;8.68;2.83;;;;;;;;;;5070558;28;20040;-72
2022/10/09 02:08:24;;;;;;;4.80;2.40;;;8.60;99.90;;;;;;5071551;28;20047;-72
2022/10/09 02:10:54;;;;;;;9.02;2.83;;;8.60;99.90;;;;;;5071334;28;20139;-72
2022/10/09 02:13:20;;;;;;;4.88;2.53;;;8.30;99.90;;;;;;5054549;28;20040;-72
2022/10/09 02:16:23;;;;;;;8.75;3.25;;;8.60;99.90;;;;;;5070913;28;20115;-72
2022/10/09 02:19:15;;;;;;;6.45;2.50;;;8.40;99.90;;;;;;5072445;28;20119;-73
2022/10/09 02:21:53;;;;;;;5.15;2.58;;;8.40;99.90;;;;;;5054662;28;20044;-72
2022/10/09 02:24:21;;;;;;;5.90;2.50;;;8.40;99.90;;;;;;5070951;28;20494;-72
2022/10/09 02:26:47;;;;;;;15.60;3.33;;;8.50;99.90;;;;;;5070728;28;20082;-72
2022/10/09 02:29:13;;;;;;;5.88;2.72;;;8.40;99.90;;;;;;5054478;28;20051;-73
2022/10/09 02:31:41;;;;;;;4.28;2.63;;;8.40;99.90;;;;;;5071176;28;20032;-72
2022/10/09 02:34:10;;;;;;;8.68;3.38;;;8.30;99.90;;;;;;5070741;28;20039;-72
2022/10/09 02:36:36;;;;;;;7.93;3.05;;;8.50;99.90;;;;;;5072158;28;20037;-73
2022/10/09 02:39:03;;;;;;;7.97;2.92;;;8.30;99.90;;;;;;5070772;28;20044;-73
2022/10/09 02:41:29;;;;;;;5.88;2.80;;;8.40;99.90;;;;;;5054011;28;20044;-73
2022/10/09 02:43:55;;;;;;;6.38;3.70;;;8.30;99.90;;;;;;5070578;28;20036;-72
2022/10/09 02:46:21;;;;;;;4.78;2.88;;;8.40;99.90;;;;;;5054112;28;20494;-72
2022/10/09 02:48:47;;;;;;;8.40;3.30;;;;;;;;;;5070635;28;20095;-72
2022/10/09 02:51:13;;;;;;;6.80;2.95;;;;;;;;;;5071836;28;20040;-73
2022/10/09 02:53:39;;;;;;;8.10;4.03;;;;;;;;;;5053874;28;20036;-73
2022/10/09 02:56:05;;;;;;;10.63;3.97;;;;;;;;;;5071598;28;20040;-72
2022/10/09 02:58:32;;;;;;;9.05;3.65;;;8.50;99.90;;;;;;5053697;28;20131;-72
2022/10/09 03:00:58;;;;;;;7.85;3.35;;;8.40;99.90;;;;;;5070173;28;20040;-72
2022/10/09 03:03:23;;;;;;;10.05;3.95;;;8.40;99.90;;;;;;5087541;28;20048;-73
2022/10/09 03:06:10;;;;;;;7.78;3.70;;;8.20;99.90;;;;;;5070249;28;20127;-73
2022/10/09 03:08:38;;;;;;;10.35;4.53;;;8.30;99.90;;;;;;5070476;28;20036;-72
2022/10/09 03:11:05;;;;;;;8.20;4.57;;;8.30;99.90;;;;;;5070079;28;20055;-73
2022/10/09 03:13:31;;;;;;;7.53;4.63;;;;;;;;;;5071650;28;20506;-72
2022/10/09 03:16:04;;;;;;;8.85;4.03;;;;;;;;;;5068459;28;20044;-72
2022/10/09 03:18:30;;;;;;;9.88;4.53;;;8.20;99.90;;;;;;5070680;28;20648;-72
2022/10/09 03:20:56;;;;;;;12.38;4.05;;;8.20;99.90;;;;;;5070100;28;20050;-72
2022/10/09 03:23:22;;;;;;;8.20;4.93;;;8.20;99.90;;;;;;5070432;28;20131;-72
2022/10/09 03:26:01;;;;;;;9.82;5.07;;;8.20;99.90;;;;;;5066008;28;20159;-72
2022/10/09 03:28:27;;;;;;;12.73;5.68;;;;;;;;;;5069738;28;20434;-72
2022/10/09 03:30:53;;;;;;;10.07;4.60;;;8.30;99.90;;;;;;5087030;28;20563;-72
2022/10/09 03:33:19;;;;;;;9.25;5.22;;;8.10;99.90;;;;;;5071410;28;20044;-72
2022/10/09 03:35:48;;;;;;;9.70;5.07;;;8.20;99.90;;;;;;5069795;28;20033;-72
2022/10/09 03:38:15;;;;;;;10.20;4.82;;;8.40;99.90;;;;;;5071736;28;20032;-72
2022/10/09 03:40:41;;;;;;;10.07;4.95;;;8.20;99.90;;;;;;5071528;28;20502;-72
2022/10/09 03:43:07;;;;;;;12.48;5.65;;;;;;;;;;5071333;28;20108;-72
2022/10/09 03:45:33;;;;;;;11.35;6.07;;;;;;;;;;5071097;28;20044;-73
2022/10/09 03:47:59;;;;;;;6.90;4.90;;;;;;;;;;5053082;28;20040;-72
2022/10/09 03:50:25;;;;;;;10.13;6.00;;;8.40;99.90;;;;;;5071247;28;20064;-72
2022/10/09 03:52:50;;;;;;;9.95;5.63;;;8.30;99.90;;;;;;5070169;28;20119;-72
2022/10/09 03:55:16;;;;;;;8.40;5.43;;;8.30;99.90;;;;;;5071203;28;20036;-72
2022/10/09 03:57:42;;;;;;;9.77;5.38;;;;;;;;;;5070228;28;20055;-72
2022/10/09 04:00:09;;;;;;;7.85;5.38;;;;;;;;;;5069804;28;20190;-72
2022/10/09 04:02:36;;;;;;;12.32;5.85;;;8.40;99.90;;;;;;5070243;28;20554;-72
2022/10/09 04:05:02;;;;;;;7.35;4.85;;;;;;;;;;5086275;28;20127;-72
2022/10/09 04:07:27;;;;;;;13.38;5.72;;;8.30;99.90;;;;;;5069806;28;20179;-73
2022/10/09 04:09:53;;;;;;;11.30;6.15;;;8.10;99.90;;;;;;5069809;28;20520;-72
2022/10/09 04:12:19;;;;;;;15.07;6.82;;;;;;;;;;5069993;28;20041;-73
2022/10/09 04:14:45;;;;;;;14.48;5.82;;;;;;;;;;5069707;28;20040;-73
2022/10/09 04:17:11;;;;;;;10.98;6.38;;;;;;;;;;5069755;28;20044;-73
2022/10/09 04:19:36;;;;;;;11.00;6.13;;;8.00;99.90;;;;;;5069913;28;20484;-72
2022/10/09 04:22:02;;;;;;;10.65;6.60;;;8.10;99.90;;;;;;5069874;28;20078;-72
2022/10/09 04:24:27;;;;;;;13.70;5.93;;;7.90;99.90;;;;;;5073052;28;20036;-72
2022/10/09 04:26:53;;;;;;;9.93;5.07;;;;;;;;;;5074651;28;20036;-72
2022/10/09 04:29:19;;;;;;;12.32;5.93;;;8.10;99.90;;;;;;5072384;28;20037;-72
2022/10/09 04:31:45;;;;;;;10.40;5.55;;;;;;;;;;5074256;28;20082;-72
2022/10/09 04:34:11;;;;;;;8.90;5.07;;;7.90;99.90;;;;;;5073017;28;20068;-72
2022/10/09 04:36:36;;;;;;;12.80;6.05;;;7.80;99.90;;;;;;5074546;28;20079;-72
2022/10/09 04:39:02;;;;;;;9.32;5.70;;;;;;;;;;5073520;28;20040;-72
2022/10/09 04:41:28;;;;;;;14.77;6.38;;;;;;;;;;5073024;28;20048;-72
2022/10/09 04:43:55;;;;;;;8.65;5.32;;;;;;;;;;5072800;28;20097;-71
2022/10/09 04:46:21;;;;;;;12.98;5.70;;;7.90;99.90;;;;;;5073037;28;20048;-72
2022/10/09 04:48:48;;;;;;;12.20;5.30;;;;;;;;;;5056772;28;20045;-72
2022/10/09 04:51:15;;;;;;;9.13;5.60;;;7.80;99.90;;;;;;5077632;28;20036;-72
2022/10/09 04:53:41;;;;;;;13.63;5.70;;;7.90;99.90;;;;;;5077532;28;20098;-72
2022/10/09 04:56:13;;;;;;;9.20;5.75;;;7.80;99.90;;;;;;5075612;28;20044;-72
2022/10/09 04:58:39;;;;;;;8.05;4.82;;;;;;;;;;5073752;28;20127;-72
2022/10/09 05:01:17;;;;;;;9.30;5.88;;;7.90;99.90;;;;;;5071356;28;20040;-72
2022/10/09 05:03:43;;;;;;;9.25;5.20;;;;;;;;;;5055981;28;20703;-71
2022/10/09 05:06:11;;;;;;;12.32;5.72;;;7.90;99.90;;;;;;5072323;28;20082;-72
2022/10/09 05:08:37;;;;;;;10.18;5.55;;;7.90;99.90;;;;;;5073553;28;20040;-73
2022/10/09 05:11:09;;;;;;;9.27;5.43;;;7.70;99.90;;;;;;5071697;28;20032;-72
2022/10/09 05:13:37;;;;;;;15.05;6.32;;;7.70;99.90;;;;;;5070773;28;20509;-73
2022/10/09 05:16:04;;;;;;;11.10;5.47;;;7.80;99.90;;;;;;5072142;28;20524;-72
2022/10/09 05:18:30;;;;;;;12.05;5.50;;;7.80;99.90;;;;;;5074415;28;20055;-72
2022/10/09 05:20:56;;;;;;;8.63;5.68;;;7.80;99.90;;;;;;5076151;28;20036;-72
2022/10/09 05:23:22;;;;;;;10.07;5.32;;;;;;;;;;5057384;28;20040;-72
2022/10/09 05:25:55;;;;;;;9.25;5.35;;;7.80;99.90;;;;;;5072476;28;20479;-73
2022/10/09 05:28:21;;;;;;;9.60;5.10;;;7.90;99.90;;;;;;5073369;28;20036;-73
2022/10/09 05:30:49;;;;;;;12.48;6.32;;;;;;;;;;5071471;28;20044;-72
2022/10/09 05:33:15;;;;;;;11.85;5.28;;;7.70;99.90;;;;;;5071170;28;20635;-71
2022/10/09 05:35:56;;;;;;;9.88;5.65;;;7.80;99.90;;;;;;5072322;28;20044;-72
2022/10/09 05:38:22;;;;;;;10.38;5.55;;;7.70;99.90;;;;;;5072114;28;20040;-72
2022/10/09 05:40:57;;;;;;;11.18;6.00;;;7.70;99.90;;;;;;5071969;28;20048;-72
2022/10/09 05:43:27;;;;;;;8.50;5.60;;;7.60;99.90;;;;;;5071939;28;20048;-72
2022/10/09 05:45:53;;;;;;;11.90;5.63;;;7.50;99.90;;;;;;5053030;28;20037;-73
2022/10/09 05:48:20;;;;;;;10.20;5.68;;;7.70;99.90;;;;;;5051895;28;20151;-73
2022/10/09 05:50:45;;;;;;;10.65;5.60;;;7.40;99.90;;;;;;5051554;28;20068;-72
2022/10/09 05:53:11;;;;;;;9.40;5.55;;;7.50;99.90;;;;;;5051614;28;20068;-72
2022/10/09 05:55:36;;;;;;;10.30;5.60;;;7.60;99.90;;;;;;5068001;28;20037;-73
2022/10/09 05:58:03;;;;;;;11.13;6.35;;;;;;;;;;5051603;28;20047;-73
2022/10/09 06:00:29;;;;;;;13.02;5.88;;;;;;;;;;5071291;28;20032;-73
2022/10/09 06:02:55;;;;;;;8.15;5.40;;;;;;;;;;5071578;28;20090;-73
2022/10/09 06:05:21;;;;;;;11.63;5.60;;;7.70;99.90;;;;;;5072208;28;20048;-73
2022/10/09 06:07:47;;;;;;;11.63;5.40;;;;;;;;;;5072539;28;20052;-73
2022/10/09 06:10:13;;;;;;;9.00;5.40;;;;;;;;;;5087740;28;20041;-73
2022/10/09 06:12:39;;;;;;;17.42;6.82;;;;;;;;;;5071359;28;20039;-73
2022/10/09 06:15:06;;;;;;;11.43;5.50;;;7.70;99.90;;;;;;5071180;28;20028;-73
2022/10/09 06:17:32;;;;;;;12.98;6.78;;;7.60;99.90;;;;;;5070972;28;20040;-73
2022/10/09 06:19:58;;;;;;;9.70;4.80;;;;;;;;;;5071998;28;20418;-73
2022/10/09 06:22:24;;;;;;;10.18;5.80;;;;;;;;;;5072403;28;20045;-73
2022/10/09 06:24:50;;;;;;;9.43;6.00;;;;;;;;;;5070967;28;20048;-73
2022/10/09 06:27:16;;;;;;;10.52;5.90;;;7.70;99.90;;;;;;5088062;28;20055;-73
2022/10/09 06:29:42;;;;;;;12.68;5.82;;;7.60;99.90;;;;;;5071219;28;20048;-72
2022/10/09 06:32:07;;;;;;;11.30;5.85;;;7.70;99.90;;;;;;5070968;28;20636;-73
2022/10/09 06:34:33;;;;;;;11.05;5.50;;;7.60;99.90;;;;;;5071482;28;20036;-72
2022/10/09 06:36:59;;;;;;;10.65;5.90;;;7.70;99.90;;;;;;5071056;28;20123;-73
2022/10/09 06:39:25;;;;;;;12.38;5.57;;;7.70;99.90;;;;;;5071075;28;20037;-73
2022/10/09 06:41:51;;;;;;;9.32;4.97;;;;;;;;;;5070243;28;20040;-72
2022/10/09 06:44:17;;;;;;;13.05;5.45;;;7.80;99.90;;;;;;5070101;28;20086;-73
2022/10/09 06:46:43;;;;;;;10.18;6.07;;;;;;;;;;5068832;28;20111;-73
2022/10/09 06:49:10;;;;;;;10.35;5.75;;;7.90;99.90;;;;;;5069379;28;20048;-73
2022/10/09 06:51:36;;;;;;;9.35;5.85;;;7.80;99.90;;;;;;5068991;28;20044;-73
2022/10/09 06:54:07;;;;;;;5.32;4.40;;;8.00;99.90;;;;;;5070507;28;20089;-73
2022/10/09 06:56:33;;;;;;;12.40;6.05;;;;;;;;;;5070211;28;20111;-73
2022/10/09 06:59:00;;;;;;;10.77;5.10;;;;;;;;;;5071285;28;20120;-74
2022/10/09 07:01:31;;;;;;;8.05;4.85;;;8.20;99.90;;;;;;5053021;28;20058;-72
2022/10/09 07:04:01;;;;;;;8.07;4.80;;;8.20;99.90;;;;;;5068534;28;20398;-72
2022/10/09 07:06:32;;;;;;;8.80;5.55;;;8.20;99.90;;;;;;5068590;28;20036;-73
2022/10/09 07:09:05;;;;;;;15.00;6.53;;;8.30;99.90;;;;;;5068218;28;20029;-73
2022/10/09 07:11:36;;;;;;;9.55;5.65;;;8.20;99.90;;;;;;5070055;28;20056;-73
2022/10/09 07:14:05;;;;;;;9.75;5.28;;;8.40;99.90;;;;;;5053018;28;20037;-72
2022/10/09 07:16:39;;;;;;;9.27;5.00;;;8.40;99.90;;;;;;5053192;28;20495;-73
2022/10/09 07:19:07;;;;;;;10.95;6.20;;;8.50;99.90;;;;;;5050766;28;20044;-73
2022/10/09 07:21:33;;;;;;;7.55;5.35;;;8.60;99.90;;;;;;5050346;28;20132;-73
2022/10/09 07:24:00;;;;;;;10.38;5.97;;;8.70;99.90;;;;;;5066846;28;20047;-72
2022/10/09 07:26:28;;;;;;;9.32;5.75;;;8.70;99.90;;;;;;5071723;28;20123;-73
2022/10/09 07:28:54;;;;;;;14.75;5.93;;;8.80;99.90;;;;;;5071592;28;20536;-73
2022/10/09 07:31:19;;;;;;;13.18;5.75;;;8.90;99.90;;;;;;5070153;28;20039;-73
2022/10/09 07:33:50;;;;;;;10.70;6.32;;;8.90;99.90;;;;;;5075216;28;20041;-72
2022/10/09 07:36:16;;;;;;;12.80;5.30;;;8.80;99.90;;;;;;5067787;28;20039;-73
2022/10/09 07:38:43;;;;;;;8.90;4.72;;;9.10;99.90;;;;;;5071685;28;20044;-73
2022/10/09 07:41:11;;;;;;;6.80;4.70;;;9.10;99.90;;;;;;5053256;28;20421;-74
2022/10/09 07:43:38;;;;;;;7.43;4.68;;;9.20;99.90;;;;;;5071736;28;20115;-74
2022/10/09 07:46:06;;;;;;;9.55;4.90;;;9.30;99.90;;;;;;5070481;28;20048;-74
2022/10/09 07:48:33;;;;;;;11.73;4.78;;;9.20;99.90;;;;;;5070321;28;20072;-74
2022/10/09 07:51:22;;;;;;;10.32;5.20;;;9.60;99.90;;;;;;5071445;28;20036;-74
2022/10/09 07:53:48;;;;;;;6.70;3.90;;;9.50;99.90;;;;;;5050441;28;20075;-73
2022/10/09 07:56:26;;;;;;;8.73;5.07;;;9.60;99.90;;;;;;5051164;28;20448;-74
2022/10/09 07:58:55;;;;;;;12.43;5.78;;;9.70;99.90;;;;;;5079342;28;20041;-74
2022/10/09 08:01:22;;;;;;;9.38;4.75;;;9.80;99.90;;;;;;5084589;22;20048;-77
2022/10/09 08:03:48;;;;;;;9.45;4.95;;;10.00;99.90;;;;;;5080502;28;20051;-75
2022/10/09 08:06:14;;;;;;;10.13;4.72;;;;;;;;;;5072557;28;20037;-75
2022/10/09 08:08:39;;;;;;;12.73;4.47;;;10.10;99.90;;;;;;5068563;28;20115;-76
2022/10/09 08:11:10;;;;;;;11.77;4.10;;;10.10;99.90;;;;;;5070876;28;20148;-75
2022/10/09 08:13:36;;;;;;;9.52;4.40;;;;;;;;;;5069950;28;20037;-75
2022/10/09 08:16:04;;;;;;;11.52;4.47;;;10.30;99.90;;;;;;5069700;28;20041;-75
2022/10/09 08:18:30;;;;;;;8.32;4.50;;;;;;;;;;5066422;28;20037;-76
2022/10/09 08:21:01;;;;;;;9.23;4.15;;;10.60;99.90;;;;;;5060245;28;20216;-73
2022/10/09 08:23:28;;;;;;;13.63;4.30;;;;;;;;;;5057172;28;20038;-74
2022/10/09 08:25:53;;;;;;;10.32;4.10;;;10.80;99.90;;;;;;5055233;28;20041;-74
2022/10/09 08:28:19;;;;;;;7.35;3.58;;;10.90;99.90;;;;;;5037399;28;20041;-74
2022/10/09 08:30:45;;;;;;;8.77;3.67;;;11.00;99.90;;;;;;5056218;28;20521;-75
2022/10/09 08:33:10;;;;;;;7.65;3.58;;;11.10;99.90;;;;;;5054301;28;20202;-74
2022/10/09 08:35:36;;;;;;;10.13;3.80;;;11.20;99.90;;;;;;5054758;28;20040;-74
2022/10/09 08:38:02;;;;;;;7.97;3.65;;;11.50;99.90;;;;;;5053266;28;20048;-75
2022/10/09 08:40:51;;;;;;;7.15;3.33;;;11.40;99.90;;;;;;5066735;28;20044;-75
2022/10/09 08:43:30;;;;;;;10.25;3.38;;;11.30;99.90;;;;;;5052334;28;20531;-74
2022/10/09 08:45:59;;;;;;;7.78;3.33;;;11.50;99.90;;;;;;5070239;28;20471;-76
2022/10/09 08:48:25;;;;;;;10.23;3.45;;;11.70;99.90;;;;;;5070000;28;20131;-75
2022/10/09 08:50:56;;;;;;;7.25;3.45;;;11.80;99.90;;;;;;5068197;28;20033;-74
2022/10/09 08:53:46;;;;;;;10.02;4.30;;;11.90;99.90;;;;;;5069832;28;20426;-75
2022/10/09 08:56:13;;;;;;;8.25;3.03;;;11.90;99.90;;;;;;5058145;28;20132;-75
2022/10/09 08:58:41;;;;;;;10.13;3.60;;;12.00;99.90;;;;;;5048575;28;20486;-75
2022/10/09 09:01:40;;;;;;;8.90;2.95;;;11.90;99.90;;;;;;5057380;28;20483;-75
2022/10/09 09:04:27;;;;;;;6.18;2.60;;;12.20;99.90;;;;;;5068022;28;20040;-75
2022/10/09 09:06:53;;;;;;;13.98;4.28;;;;;;;;;;5062989;28;20043;-75
2022/10/09 09:09:40;;;;;;;12.13;2.50;;;12.30;99.90;;;;;;5069363;28;20041;-75
2022/10/09 09:12:17;;;;;;;7.07;2.53;;;12.60;99.90;;;;;;5066699;28;20041;-75
2022/10/09 09:15:04;;;;;;;7.25;2.83;;;12.30;99.90;;;;;;5068779;28;20114;-75
2022/10/09 09:17:30;;;;;;;11.73;3.00;;;;;;;;;;5052560;28;20119;-75
2022/10/09 09:20:22;;;;;;;10.10;3.03;;;12.50;99.90;;;;;;5068319;28;20170;-75
2022/10/09 09:22:48;;;;;;;5.68;2.83;;;12.50;99.90;;;;;;5068395;28;20495;-75
2022/10/09 09:25:25;;;;;;;11.88;2.97;;;12.50;99.90;;;;;;5051132;28;20032;-74
2022/10/09 09:27:58;;;;;;;7.47;2.45;;;12.60;99.90;;;;;;5066012;28;20037;-75
2022/10/09 09:30:36;;;;;;;9.40;3.53;;;12.80;99.90;;;;;;5050625;28;20040;-75
2022/10/09 09:33:18;;;;;;;14.48;4.15;;;13.40;99.90;;;;;;5079700;28;20036;-75
2022/10/09 09:35:50;;;;;;;10.63;3.20;;;13.00;99.90;;;;;;5064175;28;20029;-75
2022/10/09 09:38:16;;;;;;;12.60;2.73;;;12.90;99.90;;;;;;5069601;28;20032;-74
2022/10/09 09:40:43;;;;;;;8.27;2.55;;;13.00;99.90;;;;;;5070079;28;20698;-74
2022/10/09 09:43:23;;;;;;;6.72;2.97;;;13.00;99.90;;;;;;5069675;28;20032;-75
2022/10/09 09:45:53;;;;;;;11.48;4.03;;;13.00;99.90;;;;;;5071888;28;20501;-75
2022/10/09 09:48:22;;;;;;;10.02;2.88;;;13.00;99.90;;;;;;5071190;28;20075;-76
2022/10/09 09:50:51;;;;;;;8.93;2.67;;;13.00;99.90;;;;;;5083939;28;20032;-74
2022/10/09 09:53:26;;;;;;;8.15;2.85;;;13.20;99.90;;;;;;5064348;28;20337;-75
2022/10/09 09:55:53;;;;;;;10.00;4.15;;;13.50;99.90;;;;;;5079161;28;20390;-74
2022/10/09 09:58:20;;;;;;;4.25;2.47;;;13.50;99.90;;;;;;5073966;28;20045;-74
2022/10/09 10:00:57;;;;;;;8.15;2.72;;;14.10;99.90;;;;;;5072087;28;20036;-76
2022/10/09 10:03:23;;;;;;;7.95;2.67;;;13.90;99.90;;;;;;5072869;28;20041;-74
2022/10/09 10:05:50;;;;;;;8.55;2.50;;;13.70;99.90;;;;;;5071296;28;20040;-75
2022/10/09 10:08:23;;;;;;;8.65;2.33;;;13.70;99.90;;;;;;5071774;28;20051;-75
2022/10/09 10:10:50;;;;;;;9.05;2.90;;;13.90;99.90;;;;;;5072683;28;20060;-75
2022/10/09 10:13:19;;;;;;;8.55;2.83;;;15.30;99.90;;;;;;5071769;28;20398;-74
2022/10/09 10:15:54;;;;;;;10.35;3.00;;;14.50;99.90;;;;;;5070388;28;20453;-75
2022/10/09 10:18:21;;;;;;;8.82;3.00;;;13.90;99.90;;;;;;5050582;28;20051;-74
2022/10/09 10:20:52;;;;;;;6.30;2.08;;;14.00;99.90;;;;;;5064664;28;20070;-74
2022/10/09 10:23:20;;;;;;;8.35;2.22;;;13.90;99.90;;;;;;5065332;28;20685;-74
2022/10/09 10:25:46;;;;;;;6.70;2.20;;;14.00;99.90;;;;;;5064346;28;20067;-75
2022/10/09 10:28:20;;;;;;;7.38;2.00;;;14.10;99.90;;;;;;5064470;28;20506;-75
2022/10/09 10:30:48;;;;;;;6.03;2.33;;;14.20;99.90;;;;;;5051009;28;20044;-74
2022/10/09 10:33:20;;;;;;;6.15;2.33;;;14.50;99.90;;;;;;5065240;28;20040;-74
2022/10/09 10:35:50;;;;;;;7.35;2.45;;;14.40;99.90;;;;;;5065675;28;20173;-74
2022/10/09 10:38:33;;;;;;;12.73;2.67;;;14.40;99.90;;;;;;5064577;28;20045;-74
2022/10/09 10:41:30;;;;;;;8.10;1.55;;;14.30;99.90;;;;;;5050670;28;20036;-75
2022/10/09 10:44:21;;;;;;;5.05;1.90;;;14.30;99.90;;;;;;5059889;28;20064;-74
2022/10/09 10:46:53;;;;;;;6.47;1.58;;;14.60;99.90;;;;;;5064127;28;20124;-75
2022/10/09 10:49:20;;;;;;;6.03;1.90;;;14.50;99.90;;;;;;5067588;28;20048;-74
2022/10/09 10:51:58;;;;;;;5.90;1.83;;;14.60;99.90;;;;;;5061476;28;20072;-74
2022/10/09 10:54:44;;;;;;;4.88;1.80;;;14.50;99.90;;;;;;5066948;28;20692;-73
2022/10/09 10:57:43;;;;;;;5.78;1.50;;;14.50;99.90;;;;;;5060423;28;20552;-74
2022/10/09 11:00:11;;;;;;;6.60;1.55;;;14.80;99.90;;;;;;5065126;28;20897;-76
2022/10/09 11:02:52;;;;;;;4.50;1.30;;;14.80;99.90;;;;;;5052526;28;20100;-74
2022/10/09 11:05:35;;;;;;;7.13;1.63;;;15.00;99.90;;;;;;5069742;28;20043;-75
2022/10/09 11:08:17;;;;;;;3.65;1.30;;;14.80;99.90;;;;;;5068246;28;20505;-74
2022/10/09 11:11:21;;;;;;;3.60;1.30;;;14.80;99.90;;;;;;5069333;28;20498;-75
2022/10/09 11:14:14;;;;;;;6.60;1.30;;;14.70;99.90;;;;;;5030444;28;20044;-73
2022/10/09 11:16:57;;;;;;;6.03;1.50;;;14.70;99.90;;;;;;5070874;28;20044;-75
2022/10/09 11:19:56;;;;;;;5.33;1.40;;;14.80;99.90;;;;;;5052434;28;20047;-75
2022/10/09 11:22:59;;;;;;;5.28;1.38;;;14.90;99.90;;;;;;5050892;28;20541;-74
2022/10/09 11:25:36;;;;;;;7.83;1.60;;;14.90;99.90;;;;;;5068383;28;20506;-74
2022/10/09 11:28:20;;;;;;;3.80;1.40;;;15.00;99.90;;;;;;5071021;28;20041;-74
2022/10/09 11:31:03;;;;;;;3.08;1.20;;;15.00;99.90;;;;;;5071024;28;20044;-74
2022/10/09 11:33:43;;;;;;;5.20;1.23;;;15.00;99.90;;;;;;5077541;28;20490;-74
2022/10/09 11:36:19;;;;;;;5.65;1.98;;;15.10;99.90;;;;;;5076965;28;20482;-74
2022/10/09 11:38:47;;;;;;;6.20;1.48;;;16.50;99.90;;;;;;5078701;28;20051;-74
2022/10/09 11:41:13;;;;;;;5.78;1.95;;;15.40;99.90;;;;;;5073918;28;20051;-74
2022/10/09 11:44:03;;;;;;;5.78;1.75;;;15.50;99.90;;;;;;5075929;28;20040;-74
2022/10/09 11:46:48;;;;;;;3.55;1.50;;;15.40;99.90;;;;;;5064971;28;20057;-74
2022/10/09 11:49:27;;;;;;;7.50;2.50;;;15.60;99.90;;;;;;5076413;28;20086;-74
2022/10/09 11:52:02;;;;;;;8.02;1.88;;;15.50;99.90;;;;;;5076937;28;20523;-76
2022/10/09 11:54:28;;;;;;;7.03;1.60;;;15.30;99.90;;;;;;5060065;28;20032;-75
2022/10/09 11:57:03;;;;;;;5.93;1.83;;;15.60;99.90;;;;;;5076862;28;20085;-74
2022/10/09 11:59:32;;;;;;;7.90;2.30;;;15.60;99.90;;;;;;5075914;28;20085;-77
2022/10/09 12:01:59;;;;;;;8.13;2.05;;;15.70;99.90;;;;;;5056606;28;20112;-75
2022/10/09 12:04:33;;;;;;;7.47;2.35;;;15.50;99.90;;;;;;5070475;28;20047;-75
2022/10/09 12:07:01;;;;;;;5.95;1.95;;;15.50;99.90;;;;;;5078223;28;20162;-75
2022/10/09 12:09:33;;;;;;;9.48;2.72;;;15.60;99.90;;;;;;5076862;28;20040;-75
2022/10/09 12:12:06;;;;;;;7.28;2.47;;;15.90;99.90;;;;;;5078027;28;20040;-75
2022/10/09 12:14:34;;;;;;;9.20;2.15;;;15.80;99.90;;;;;;5074061;28;20068;-76
2022/10/09 12:17:00;;;;;;;5.63;2.10;;;16.40;99.90;;;;;;5065148;28;20050;-77
2022/10/09 12:19:36;;;;;;;10.07;2.33;;;16.30;99.90;;;;;;5094467;28;20036;-76
2022/10/09 12:22:30;;;;;;;6.65;2.00;;;16.00;99.90;;;;;;5095185;28;20101;-74
2022/10/09 12:25:04;;;;;;;6.60;2.15;;;15.90;99.90;;;;;;5076563;28;20060;-75
2022/10/09 12:27:35;;;;;;;7.60;1.80;;;17.10;99.90;;;;;;5060958;28;20037;-74
2022/10/09 12:30:10;;;;;;;8.75;2.25;;;16.00;99.90;;;;;;5078416;28;20056;-75
2022/10/09 12:32:39;;;;;;;7.72;2.28;;;16.10;99.90;;;;;;5060383;28;20068;-74
2022/10/09 12:35:20;;;;;;;9.52;2.60;;;15.90;99.90;;;;;;5077576;28;20044;-75
2022/10/09 12:37:46;;;;;;;3.70;1.83;;;17.50;99.90;;;;;;5065485;28;20044;-75
2022/10/09 12:40:21;;;;;;;10.80;2.53;;;15.80;99.90;;;;;;5060146;28;20040;-75
2022/10/09 12:42:50;;;;;;;6.13;1.50;;;16.00;99.90;;;;;;5076043;28;20072;-75
2022/10/09 12:45:23;;;;;;;6.22;2.03;;;15.90;99.90;;;;;;5056171;28;20476;-76
2022/10/09 12:47:49;;;;;;;14.60;2.55;;;15.90;99.90;;;;;;5074575;28;20040;-75
2022/10/09 12:50:15;;;;;;;7.57;1.90;;;16.00;99.90;;;;;;5074609;28;20043;-74
2022/10/09 12:53:17;;;;;;;7.80;1.92;;;15.80;99.90;;;;;;5074371;28;20409;-75
2022/10/09 12:55:46;;;;;;;7.63;2.17;;;16.00;99.90;;;;;;5059738;28;20048;-75
2022/10/09 12:58:19;;;;;;;8.13;1.73;;;16.10;99.90;;;;;;5073322;28;20045;-75
2022/10/09 13:00:46;;;;;;;9.00;2.10;;;16.00;99.90;;;;;;5074127;28;20081;-75
2022/10/09 13:03:40;;;;;;;7.50;2.22;;;16.20;99.90;;;;;;5072937;28;20058;-75
2022/10/09 13:06:13;;;;;;;11.70;2.38;;;16.20;99.90;;;;;;5074189;28;20036;-75
2022/10/09 13:08:39;;;;;;;;;;;16.20;99.90;;;;;;5074533;28;20440;-75
2022/10/09 13:11:17;;;;;;;4.35;2.00;;;15.90;99.90;;;;;;5055897;28;19916;-77
2022/10/09 13:13:50;;;;;;;6.18;1.88;;;15.80;99.90;;;;;;5069889;28;20470;-75
2022/10/09 13:16:16;;;;;;;6.18;2.05;;;16.00;99.90;;;;;;5072602;28;20032;-75
2022/10/09 13:18:42;;;;;;;7.80;2.15;;;16.00;99.90;;;;;;5072869;28;20095;-75
2022/10/09 13:21:29;;;;;;;8.05;1.73;;;16.10;99.90;;;;;;5072333;28;20033;-75
2022/10/09 13:24:09;;;;;;;7.07;2.00;;;16.80;99.90;;;;;;5072224;28;20041;-74
2022/10/09 13:26:35;;;;;;;6.45;2.17;;;16.10;99.90;;;;;;5074389;28;20041;-75